This is the latest recevied weather packets stored in our database for station/object OE3CJB-13. If no packets are shown the sender has not sent any weather packets the latest 10 day(s).
| Time | Temp. | Humidity | Pressure | Rain* | Wind** | Luminosity | Snow |
|---|---|---|---|---|---|---|---|
| 1787757356 | 27.22° C | 36% | 1151.5 hPa | 0 mm | - | - | - |
| 1787756443 | 27.22° C | 37% | 1151.6 hPa | 0 mm | - | - | - |
| 1787755674 | 27.22° C | 36% | 1152.4 hPa | 0 mm | - | - | - |
| 1787754617 | 26.67° C | 38% | 1153.1 hPa | 0 mm | - | - | - |
| 1787753753 | 27.22° C | 38% | 1154 hPa | 0 mm | - | - | - |
| 1787752843 | 27.78° C | 34% | 1153.3 hPa | 0 mm | - | - | - |
| 1787751929 | 28.33° C | 32% | 1152.5 hPa | 0 mm | - | - | - |
| 1787751246 | 28.33° C | 33% | 1152.5 hPa | 0 mm | - | - | - |
| 1787750201 | 29.44° C | 29% | 1151.6 hPa | 0 mm | - | - | - |
| 1787749243 | 28.89° C | 32% | 1151.6 hPa | 0 mm | - | - | - |
| 1787748329 | 28.33° C | 32% | 1151.9 hPa | 0 mm | - | - | - |
| 1787747417 | 28.33° C | 34% | 1151.8 hPa | 0 mm | - | - | - |
| 1787746601 | 28.33° C | 35% | 1151.9 hPa | 0 mm | - | - | - |
| 1787745643 | 27.78° C | 37% | 1151.8 hPa | 0 mm | - | - | - |
| 1787744777 | 27.22° C | 39% | 1150.3 hPa | 0 mm | - | - | - |
| 1787743818 | 26.67° C | 41% | 1151.3 hPa | 0 mm | - | - | - |
| 1787742958 | 26.11° C | 45% | 1150.6 hPa | 0 mm | - | - | - |
| 1787742091 | 25.56° C | 45% | 1149.9 hPa | 0 mm | - | - | - |
| 1787741134 | 25.56° C | 46% | 1149.3 hPa | 0 mm | - | - | - |
| 1787740217 | 25° C | 49% | 1149.5 hPa | 0 mm | - | - | - |
| 1787739353 | 23.89° C | 52% | 1148.8 hPa | 0 mm | - | - | - |
| 1787738443 | 23.33° C | 52% | 1148.9 hPa | 0 mm | - | - | - |
| 1787737577 | 22.78° C | 54% | 1148.1 hPa | 0 mm | - | - | - |
| 1787736718 | 22.78° C | 53% | 1147.5 hPa | 0 mm | - | - | - |
| 1787735752 | 22.22° C | 57% | 1146.7 hPa | 0 mm | - | - | - |
* Rain latest hour (hover to see other rain measurements)
** Current wind speed in m/s (hover to see current wind gust speed)